Time;durP1;ratioP1;P1;durP2;ratioP2;P2;SDS_P1;SDS_P2;PMS_P1;PMS_P2;Temp;Humidity;BMP_temperature;BMP_pressure;BME280_temperature;BME280_humidity;BME280_pressure;Samples;Min_cycle;Max_cycle;Signal;HPM_P1;HPM_P2
2021/12/05 00:24:28;;;;;;;19.85;8.52;;;;;;;;;;5012574;28;20427;-71
2021/12/05 00:27:01;;;;;;;18.27;8.70;;;;;;;;;;5028467;28;20429;-71
2021/12/05 00:29:55;;;;;;;19.67;9.27;;;;;;;;;;5028949;28;20415;-71
2021/12/05 00:32:29;;;;;;;22.33;9.45;;;;;;;;;;5028773;27;20450;-71
2021/12/05 00:51:13;;;;;;;19.88;10.10;;;;;;;;;;5027460;28;20419;-71
2021/12/05 00:57:28;;;;;;;21.52;9.90;;;;;;;;;;5027878;28;20427;-70
2021/12/05 00:59:33;;;;;;;20.02;10.93;;;;;;;;;;5014360;28;20458;-71
2021/12/05 01:17:34;;;;;;;16.50;10.32;;;;;;;;;;5007400;28;20436;-71
2021/12/05 01:20:02;;;;;;;21.40;10.63;;;;;;;;;;5008304;28;20502;-71
2021/12/05 01:22:32;;;;;;;23.23;11.18;;;;;;;;;;5007545;28;20972;-71
2021/12/05 01:25:16;;;;;;;21.30;10.85;;;;;;;;;;5036776;28;20420;-71
2021/12/05 01:28:29;;;;;;;20.95;11.20;;;;;;;;;;5008184;28;20428;-71
2021/12/05 01:30:55;;;;;;;22.35;10.63;;;;;;;;;;5009425;28;20444;-71
2021/12/05 01:36:30;;;;;;;21.35;10.90;;;;;;;;;;4993050;28;20436;-72
2021/12/05 01:39:22;;;;;;;19.30;11.07;;;;;;;;;;5007424;28;20425;-71
2021/12/05 02:07:41;;;;;;;22.13;10.70;;;;;;;;;;5023633;28;20840;-71
2021/12/05 02:11:22;;;;;;;20.15;10.40;;;;;;;;;;5029454;27;20479;-71
2021/12/05 02:33:06;;;;;;;25.92;10.80;;;;;;;;;;5025964;28;20437;-71
2021/12/05 02:43:10;;;;;;;23.13;10.98;;;;;;;;;;5026270;28;20426;-71
2021/12/05 02:45:38;;;;;;;22.23;11.30;;;;;;;;;;5025980;28;20446;-72
2021/12/05 02:48:05;;;;;;;19.42;11.52;;;;;;;;;;5046785;27;20934;-71
2021/12/05 02:50:32;;;;;;;21.87;11.80;;;;;;;;;;5026917;28;20511;-71
2021/12/05 02:53:09;;;;;;;24.52;12.25;;;;;;;;;;5025989;28;20518;-72
2021/12/05 02:55:44;;;;;;;25.52;12.27;;;;;;;;;;5026650;28;20419;-72
2021/12/05 02:58:40;;;;;;;23.75;12.80;;;;;;;;;;5025706;28;20434;-72
2021/12/05 03:01:11;;;;;;;30.63;13.00;;;;;;;;;;5025721;28;20419;-71
2021/12/05 03:03:37;;;;;;;29.73;12.55;;;;;;;;;;5029838;28;20429;-72
2021/12/05 03:06:32;;;;;;;26.50;13.65;;;;;;;;;;5029153;27;20928;-71
2021/12/05 03:08:58;;;;;;;27.60;13.77;;;;;;;;;;5028027;27;20906;-71
2021/12/05 03:11:25;;;;;;;27.83;13.77;;;;;;;;;;5014399;28;20758;-71
2021/12/05 03:13:52;;;;;;;29.88;14.52;;;;;;;;;;5028257;28;20445;-71
2021/12/05 03:16:19;;;;;;;27.95;14.52;;;;;;;;;;5029326;28;20429;-71
2021/12/05 03:18:45;;;;;;;30.05;15.07;;;;;;;;;;5028642;28;20428;-71
2021/12/05 03:21:11;;;;;;;30.35;14.88;;;;;;;;;;5029346;28;20895;-71
2021/12/05 03:23:39;;;;;;;31.45;15.95;;;;;;;;;;5047099;28;20493;-71
2021/12/05 03:26:06;;;;;;;33.60;16.95;;;;;;;;;;5028380;28;20440;-72
2021/12/05 03:28:32;;;;;;;69.00;24.58;;;;;;;;;;5027238;28;20422;-71
2021/12/05 03:30:59;;;;;;;35.13;17.58;;;;;;;;;;5012024;28;20795;-71
2021/12/05 03:33:25;;;;;;;35.97;17.33;;;;;;;;;;5028614;28;20414;-71
2021/12/05 03:35:51;;;;;;;34.03;17.20;;;;;;;;;;5027014;28;20524;-71
2021/12/05 03:38:17;;;;;;;35.60;17.73;;;;;;;;;;5028935;28;20421;-71
2021/12/05 03:40:43;;;;;;;34.72;17.90;;;;;;;;;;5028974;28;20421;-71
2021/12/05 03:43:11;;;;;;;35.47;17.85;;;;;;;;;;5029017;28;20773;-71
2021/12/05 03:45:40;;;;;;;36.33;19.45;;;;;;;;;;5028585;28;20778;-71
2021/12/05 03:48:08;;;;;;;33.45;18.27;;;;;;;;;;5046048;28;20405;-71
2021/12/05 03:50:34;;;;;;;35.08;18.38;;;;;;;;;;5028646;28;20471;-71
2021/12/05 03:53:00;;;;;;;39.53;18.67;;;;;;;;;;5011647;28;20456;-71
2021/12/05 03:55:27;;;;;;;34.83;19.35;;;;;;;;;;5029172;28;20421;-71
2021/12/05 03:57:53;;;;;;;34.93;18.70;;;;;;;;;;5046764;28;20466;-71
2021/12/05 04:00:27;;;;;;;39.75;19.38;;;;;;;;;;5028835;28;20438;-71
2021/12/05 04:02:54;;;;;;;39.90;18.75;;;;;;;;;;5027615;28;20426;-72
2021/12/05 04:05:21;;;;;;;38.72;19.83;;;;;;;;;;5027462;28;20490;-72
2021/12/05 04:07:47;;;;;;;85.30;24.73;;;;;;;;;;5028530;28;20414;-71
2021/12/05 04:10:14;;;;;;;40.75;20.60;;;;;;;;;;5011674;28;20413;-71
2021/12/05 04:12:40;;;;;;;78.40;25.25;;;;;;;;;;5029535;28;20762;-71
2021/12/05 04:15:07;;;;;;;56.00;23.15;;;;;;;;;;5031275;28;20422;-71
2021/12/05 04:17:33;;;;;;;65.63;22.90;;;;;;;;;;5028049;28;20931;-71
2021/12/05 04:19:59;;;;;;;41.95;19.83;;;;;;;;;;5028565;28;20901;-72
2021/12/05 04:22:25;;;;;;;248.47;37.13;;;;;;;;;;5045575;28;20417;-71
2021/12/05 04:24:52;;;;;;;61.40;23.58;;;;;;;;;;5011914;28;20491;-72
2021/12/05 04:27:18;;;;;;;79.25;24.60;;;;;;;;;;5048750;28;20421;-71
2021/12/05 04:29:44;;;;;;;64.30;21.85;;;;;;;;;;5031856;28;20421;-71
2021/12/05 04:32:10;;;;;;;40.83;21.80;;;;;;;;;;5031644;28;20480;-71
2021/12/05 04:34:36;;;;;;;45.97;22.10;;;;;;;;;;5031317;28;20417;-71
2021/12/05 04:37:03;;;;;;;38.75;21.55;;;;;;;;;;5031734;28;20421;-71
2021/12/05 04:39:29;;;;;;;36.63;20.80;;;;;;;;;;5031089;28;20421;-71
2021/12/05 04:41:56;;;;;;;65.53;24.00;;;;;;;;;;5013918;28;20425;-71
2021/12/05 04:44:23;;;;;;;187.25;35.92;;;;;;;;;;5031254;28;20516;-71
2021/12/05 04:46:49;;;;;;;113.30;28.85;;;;;;;;;;5031240;28;20481;-71
2021/12/05 04:49:17;;;;;;;42.75;21.38;;;;;;;;;;5009285;28;20498;-71
2021/12/05 04:51:44;;;;;;;132.43;29.17;;;;;;;;;;5030016;28;20453;-71
2021/12/05 04:54:11;;;;;;;99.93;27.05;;;;;;;;;;5031457;28;20845;-71
2021/12/05 04:56:38;;;;;;;55.38;21.98;;;;;;;;;;5048976;28;20474;-71
2021/12/05 04:59:11;;;;;;;40.00;20.98;;;;;;;;;;5030970;28;20429;-71
2021/12/05 05:01:37;;;;;;;93.22;25.38;;;;;;;;;;5007773;28;20431;-71
2021/12/05 05:04:08;;;;;;;214.25;35.90;;;;;;;;;;5047536;27;20781;-71
2021/12/05 05:06:34;;;;;;;37.83;19.00;;;;;;;;;;5015023;28;21082;-71
2021/12/05 05:09:00;;;;;;;33.28;18.67;;;;;;;;;;5030436;28;20428;-71
2021/12/05 05:11:27;;;;;;;36.42;18.58;;;;;;;;;;5042059;28;20433;-71
2021/12/05 05:13:54;;;;;;;130.13;26.20;;;;;;;;;;5031487;28;20425;-71
2021/12/05 05:16:22;;;;;;;39.70;18.88;;;;;;;;;;5030804;28;20429;-72
2021/12/05 05:18:53;;;;;;;53.25;18.70;;;;;;;;;;5049163;28;20472;-71
2021/12/05 05:21:41;;;;;;;31.85;16.67;;;;;;;;;;5030001;28;20521;-72
2021/12/05 05:40:19;;;;;;;30.98;15.73;;;;;;;;;;5056107;27;20401;-72
2021/12/05 05:50:52;;;;;;;26.25;14.30;;;;;;;;;;4949374;28;20429;-72
2021/12/05 05:53:18;;;;;;;30.40;14.02;;;;;;;;;;4971652;28;20447;-72
2021/12/05 05:55:44;;;;;;;36.13;15.13;;;;;;;;;;5030134;27;20791;-72
2021/12/05 05:58:14;;;;;;;66.65;18.05;;;;;;;;;;5029726;28;20417;-72
2021/12/05 06:00:53;;;;;;;26.35;13.63;;;;;;;;;;5029933;28;20477;-72
2021/12/05 06:03:22;;;;;;;28.67;13.18;;;;;;;;;;5029763;28;20426;-71
2021/12/05 06:06:03;;;;;;;67.25;16.55;;;;;;;;;;5031127;28;20464;-72
2021/12/05 06:08:30;;;;;;;111.15;19.35;;;;;;;;;;5024623;28;20468;-72
2021/12/05 06:10:58;;;;;;;29.17;13.07;;;;;;;;;;5013955;28;20505;-72
2021/12/05 06:13:25;;;;;;;28.33;11.77;;;;;;;;;;5063060;28;20861;-71
2021/12/05 06:15:51;;;;;;;24.10;12.50;;;;;;;;;;5029199;28;20421;-72
2021/12/05 06:18:18;;;;;;;30.08;12.30;;;;;;;;;;5029621;28;20500;-71
2021/12/05 06:20:44;;;;;;;25.35;11.18;;;;;;;;;;5013912;28;20417;-71
2021/12/05 06:23:11;;;;;;;28.83;11.15;;;;;;;;;;5029946;28;20496;-72
2021/12/05 06:25:39;;;;;;;28.40;11.00;;;;;;;;;;5013237;28;20543;-72
2021/12/05 06:28:10;;;;;;;27.27;11.27;;;;;;;;;;5030224;28;20967;-72
2021/12/05 06:46:15;;;;;;;27.88;10.65;;;;;;;;;;5029262;28;20486;-72
2021/12/05 06:48:42;;;;;;;26.42;10.80;;;;;;;;;;5058016;27;20428;-72
2021/12/05 06:51:09;;;;;;;28.13;11.30;;;;;;;;;;5029994;28;20424;-72
2021/12/05 06:53:35;;;;;;;31.40;11.73;;;;;;;;;;5046907;28;20413;-71
2021/12/05 06:56:01;;;;;;;29.23;11.75;;;;;;;;;;5029467;28;20430;-72
2021/12/05 06:58:27;;;;;;;27.15;10.93;;;;;;;;;;5029701;28;20505;-72
2021/12/05 07:00:53;;;;;;;26.67;11.13;;;;;;;;;;5039236;28;20423;-72
2021/12/05 07:03:19;;;;;;;23.45;11.35;;;;;;;;;;5026234;28;20431;-71
2021/12/05 07:08:34;;;;;;;25.52;11.75;;;;;;;;;;5020437;28;20423;-71
2021/12/05 07:11:14;;;;;;;38.80;12.80;;;;;;;;;;5025369;28;20430;-71
2021/12/05 07:16:53;;;;;;;30.58;11.80;;;;;;;;;;5025555;28;20466;-71
2021/12/05 07:19:12;;;;;;;27.08;12.20;;;;;;;;;;5015838;28;20488;-71
2021/12/05 07:21:45;;;;;;;26.70;12.48;;;;;;;;;;5025566;28;20445;-72
2021/12/05 07:40:29;;;;;;;25.23;11.00;;;;;;;;;;5024749;28;20430;-73
2021/12/05 07:42:58;;;;;;;29.05;11.90;;;;;;;;;;5025717;28;20506;-73
2021/12/05 07:45:34;;;;;;;26.30;11.80;;;;;;;;;;5024747;28;20431;-73
2021/12/05 07:48:09;;;;;;;27.17;11.40;;;;;;;;;;5025360;28;20430;-73
2021/12/05 07:50:49;;;;;;;33.47;12.60;;;;;;;;;;5053489;27;20430;-73
2021/12/05 07:53:24;;;;;;;25.08;12.45;;;;;;;;;;5008456;28;20792;-73
2021/12/05 07:55:55;;;;;;;27.35;12.55;;;;;;;;;;5008992;28;20427;-73
2021/12/05 08:14:40;;;;;;;39.97;17.10;;;;;;;;;;5008525;28;20413;-74
2021/12/05 08:17:13;;;;;;;29.58;14.63;;;;;;;;;;4992785;28;20784;-74
2021/12/05 08:19:39;;;;;;;26.55;14.57;;;;;;;;;;5053896;27;20480;-74
2021/12/05 08:22:06;;;;;;;28.20;13.52;;;;;;;;;;5000235;28;20498;-74
2021/12/05 08:24:33;;;;;;;29.70;14.82;;;;;;;;;;5037303;27;20448;-74
2021/12/05 08:27:01;;;;;;;36.80;15.48;;;;;;;;;;4999477;28;20987;-74
2021/12/05 08:29:35;;;;;;;30.77;14.20;;;;;;;;;;5025613;27;20454;-74
2021/12/05 09:53:29;;;;;;;30.42;14.93;;;;;;;;;;5016763;28;20418;-72
2021/12/05 10:35:08;;;;;;;25.67;14.38;;;;;;;;;;4944800;28;20475;-73
2021/12/05 10:37:14;;;;;;;26.50;14.50;;;;;;;;;;5010635;28;20516;-73
2021/12/05 10:39:40;;;;;;;26.42;13.45;;;;;;;;;;5054265;28;20425;-73
2021/12/05 10:42:35;;;;;;;36.88;14.73;;;;;;;;;;5031475;28;20801;-74
2021/12/05 10:45:01;;;;;;;24.17;13.95;;;;;;;;;;5029153;27;20506;-73
2021/12/05 10:47:42;;;;;;;27.92;13.57;;;;;;;;;;5024560;28;20768;-73
2021/12/05 10:50:27;;;;;;;24.90;13.55;;;4.80;99.90;;;;;;5029299;28;20421;-72
2021/12/05 10:53:12;;;;;;;63.75;17.00;;;;;;;;;;5047083;28;20413;-73
2021/12/05 10:55:38;;;;;;;25.38;12.70;;;;;;;;;;5029440;28;20448;-73
2021/12/05 10:58:05;;;;;;;24.52;13.15;;;;;;;;;;5012303;28;20425;-73
2021/12/05 11:00:31;;;;;;;23.00;12.43;;;;;;;;;;5029571;28;20421;-72
2021/12/05 11:03:16;;;;;;;25.42;13.30;;;;;;;;;;5047884;27;20433;-73
2021/12/05 11:05:43;;;;;;;22.33;12.60;;;;;;;;;;5029514;28;20432;-73
2021/12/05 11:08:28;;;;;;;23.27;12.65;;;;;;;;;;5020461;28;20919;-73
2021/12/05 11:11:09;;;;;;;43.78;15.02;;;;;;;;;;5029564;28;20980;-73
2021/12/05 11:13:37;;;;;;;32.03;13.10;;;;;;;;;;5029479;28;20423;-74
2021/12/05 11:16:03;;;;;;;22.80;12.65;;;;;;;;;;5028676;28;20421;-74
2021/12/05 11:18:45;;;;;;;21.67;12.60;;;;;;;;;;5042289;28;20911;-73
2021/12/05 11:21:46;;;;;;;68.32;16.90;;;;;;;;;;5039757;27;20461;-74
2021/12/05 11:24:16;;;;;;;46.15;13.82;;;;;;;;;;5058357;27;20796;-73
2021/12/05 11:26:44;;;;;;;25.10;12.13;;;;;;;;;;5029015;28;20436;-74
2021/12/05 11:29:11;;;;;;;25.52;12.05;;;;;;;;;;5028501;28;21974;-73
2021/12/05 11:31:38;;;;;;;25.90;13.93;;;;;;;;;;5012024;28;20413;-73
2021/12/05 11:34:04;;;;;;;28.20;14.52;;;;;;;;;;5028135;28;20429;-73
2021/12/05 11:36:33;;;;;;;23.60;12.75;;;;;;;;;;5028947;28;20417;-73
2021/12/05 11:39:00;;;;;;;22.77;11.95;;;;;;;;;;5029129;28;20486;-73
2021/12/05 11:41:26;;;;;;;22.60;12.50;;;;;;;;;;5012812;28;20425;-73
2021/12/05 11:43:54;;;;;;;22.77;12.05;;;;;;;;;;5029765;28;20421;-73
2021/12/05 11:46:22;;;;;;;23.77;12.50;;;;;;;;;;5028327;28;20516;-73
2021/12/05 11:48:53;;;;;;;19.73;11.25;;;;;;;;;;5046134;28;20893;-73
2021/12/05 11:51:36;;;;;;;20.50;11.77;;;;;;;;;;5028876;28;21036;-73
2021/12/05 11:54:08;;;;;;;34.30;13.98;;;;;;;;;;5027934;28;20765;-73
2021/12/05 11:56:34;;;;;;;20.15;11.43;;;;;;;;;;5028108;28;20508;-73
2021/12/05 11:59:19;;;;;;;22.85;12.18;;;;;;;;;;5028582;28;20418;-73
2021/12/05 12:01:48;;;;;;;24.05;12.20;;;;;;;;;;5027477;28;20456;-73
2021/12/05 12:04:16;;;;;;;23.63;12.02;;;;;;;;;;5030424;28;20425;-72
2021/12/05 12:06:43;;;;;;;23.33;11.52;;;;;;;;;;5012434;28;20928;-73
2021/12/05 12:09:09;;;;;;;25.05;11.65;;;;;;;;;;5028829;27;20496;-73
2021/12/05 12:11:35;;;;;;;25.50;12.70;;;;;;;;;;5028299;28;20425;-73
2021/12/05 12:14:02;;;;;;;21.98;12.25;;;;;;;;;;5034540;28;20568;-73
2021/12/05 12:16:33;;;;;;;22.45;12.75;;;;;;;;;;5010590;28;20436;-73
2021/12/05 12:19:00;;;;;;;24.13;12.43;;;;;;;;;;5027939;28;20855;-71
2021/12/05 12:21:36;;;;;;;25.15;13.73;;;;;;;;;;5027737;28;20436;-71
2021/12/05 12:24:02;;;;;;;22.35;12.45;;;;;;;;;;5028586;28;20548;-71
2021/12/05 12:26:28;;;;;;;23.20;12.23;;;;;;;;;;5027345;28;20921;-70
2021/12/05 12:28:58;;;;;;;21.88;12.10;;;;;;;;;;5029423;28;20500;-71
2021/12/05 12:31:31;;;;;;;19.33;11.52;;;;;;;;;;5027751;28;20426;-71
2021/12/05 12:33:58;;;;;;;20.85;11.48;;;;;;;;;;5035311;28;20478;-71
2021/12/05 12:36:32;;;;;;;20.48;10.93;;;;;;;;;;5028997;28;20921;-71
2021/12/05 12:39:03;;;;;;;21.00;11.35;;;;;;;;;;5028956;28;20422;-71
2021/12/05 12:41:29;;;;;;;20.90;10.95;;;;;;;;;;5022314;28;22578;-71
2021/12/05 12:44:03;;;;;;;21.10;12.52;;;;;;;;;;5028147;28;20449;-71
2021/12/05 12:46:29;;;;;;;27.25;12.48;;;;;;;;;;5029175;27;20432;-71
2021/12/05 12:49:00;;;;;;;17.67;10.48;;;;;;;;;;5061187;27;20429;-71
2021/12/05 12:51:37;;;;;;;22.58;11.40;;;;;;;;;;5048285;28;20410;-71
2021/12/05 12:54:08;;;;;;;18.05;10.93;;;;;;;;;;5037980;28;20429;-71
2021/12/05 12:56:35;;;;;;;18.45;10.40;;;;;;;;;;5041062;27;20433;-71
2021/12/05 12:59:06;;;;;;;17.50;11.30;;;;;;;;;;5030356;28;20495;-71
2021/12/05 13:10:08;;;;;;;17.77;11.52;;;;;;;;;;5030729;27;20421;-73
2021/12/05 13:12:49;;;;;;;68.78;13.82;;;;;;;;;;5031444;28;20425;-73
2021/12/05 13:15:16;;;;;;;17.95;10.00;;;;;;;;;;5032598;28;20418;-73
2021/12/05 13:17:51;;;;;;;21.83;10.98;;;;;;;;;;5063434;27;20432;-73
2021/12/05 13:20:28;;;;;;;19.80;10.57;;;;;;;;;;5014630;28;20433;-73
2021/12/05 13:23:00;;;;;;;20.45;11.32;;;;;;;;;;5030993;28;20429;-72
2021/12/05 13:25:26;;;;;;;25.25;13.05;;;;;;;;;;5035325;28;20928;-73
2021/12/05 13:27:52;;;;;;;19.63;11.60;;;;;;;;;;5039229;27;20746;-73
2021/12/05 13:30:30;;;;;;;21.17;11.88;;;;;;;;;;5030590;27;20453;-73
2021/12/05 13:33:22;;;;;;;20.08;11.55;;;;;;;;;;5022702;28;20455;-73
2021/12/05 13:35:49;;;;;;;19.92;11.88;;;;;;;;;;5064558;27;20432;-73
2021/12/05 13:38:34;;;;;;;20.85;11.73;;;;;;;;;;5028152;28;20441;-73
2021/12/05 13:41:11;;;;;;;21.33;11.98;;;;;;;;;;5009639;28;20451;-73
2021/12/05 13:43:38;;;;;;;19.30;11.43;;;;;;;;;;5045446;27;20457;-73
2021/12/05 13:46:25;;;;;;;20.23;12.35;;;;;;;;;;5030395;28;20422;-73
2021/12/05 13:48:51;;;;;;;19.17;11.40;;;;;;;;;;5014912;28;20445;-73
2021/12/05 13:51:22;;;;;;;21.10;12.32;;;;;;;;;;5030354;28;20422;-73
2021/12/05 13:53:51;;;;;;;18.25;11.30;;;;;;;;;;5013987;28;20425;-73
2021/12/05 13:56:25;;;;;;;19.67;11.27;;;;;;;;;;5030151;28;20421;-73
2021/12/05 13:58:53;;;;;;;21.20;10.18;;;;;;;;;;5030709;28;20468;-73
2021/12/05 14:01:25;;;;;;;18.05;10.57;;;;;;;;;;5013727;28;20510;-73
2021/12/05 14:03:58;;;;;;;18.80;10.30;;;;;;;;;;5029645;28;20504;-72
2021/12/05 14:06:30;;;;;;;18.38;10.93;;;;;;;;;;5029651;28;20454;-72
2021/12/05 14:08:59;;;;;;;20.17;12.63;;;;;;;;;;5020950;27;20508;-71
2021/12/05 14:11:26;;;;;;;20.95;13.73;;;;;;;;;;5030139;28;20943;-71
2021/12/05 14:13:53;;;;;;;20.23;12.02;;;;;;;;;;5029863;28;20417;-71
2021/12/05 14:16:20;;;;;;;19.60;11.60;;;;;;;;;;5028412;28;20432;-71
2021/12/05 14:18:46;;;;;;;22.73;13.65;;;;;;;;;;5030013;28;20413;-71
2021/12/05 14:21:17;;;;;;;23.02;15.02;;;;;;;;;;5031780;28;20762;-71
2021/12/05 14:23:54;;;;;;;16.10;11.17;;;;;;;;;;5030226;28;20449;-71
2021/12/05 14:26:21;;;;;;;24.83;17.58;;;;;;;;;;5027971;28;20453;-71
2021/12/05 14:29:01;;;;;;;26.63;10.85;;;;;;;;;;5037781;27;20429;-71
2021/12/05 14:31:30;;;;;;;19.98;13.85;;;;;;;;;;5026342;28;20421;-72
2021/12/05 14:33:56;;;;;;;31.20;20.42;;;;;;;;;;5029135;27;20422;-72
2021/12/05 14:36:24;;;;;;;35.63;22.30;;;;;;;;;;5033746;27;20429;-72
2021/12/05 14:39:09;;;;;;;32.35;19.08;;;;;;;;;;5052508;27;20453;-72
2021/12/05 14:41:35;;;;;;;21.95;13.60;;;;;;;;;;5028971;28;20433;-73
2021/12/05 14:44:02;;;;;;;19.85;13.45;;;;;;;;;;5013656;28;20434;-72
2021/12/05 14:46:28;;;;;;;20.08;11.93;;;;;;;;;;5044129;27;20409;-73
2021/12/05 14:48:56;;;;;;;21.85;13.90;;;;;;;;;;5027797;28;20501;-73
2021/12/05 14:51:35;;;;;;;23.88;13.30;;;;;;;;;;5024398;28;20893;-73
2021/12/05 14:54:02;;;;;;;18.55;12.82;;;;;;;;;;5028804;28;20413;-73
2021/12/05 14:56:29;;;;;;;22.63;14.33;;;;;;;;;;5029844;28;20457;-73
2021/12/05 14:59:15;;;;;;;25.10;14.23;;;;;;;;;;5028490;27;20417;-74
2021/12/05 15:01:42;;;;;;;19.38;12.05;;;;;;;;;;5044128;28;20810;-73
2021/12/05 15:04:10;;;;;;;20.30;12.67;;;;;;;;;;5029091;28;20425;-73
2021/12/05 15:06:42;;;;;;;19.73;12.95;;;;;;;;;;5029894;28;20433;-74
2021/12/05 15:09:17;;;;;;;20.60;12.80;;;;;;;;;;5028354;28;20853;-73
2021/12/05 15:11:50;;;;;;;22.95;14.25;;;;;;;;;;5028943;28;20478;-74
2021/12/05 15:14:17;;;;;;;21.77;14.57;;;;;;;;;;5028299;28;20417;-74
2021/12/05 15:17:07;;;;;;;27.02;18.65;;;;;;;;;;5029459;28;20509;-74
2021/12/05 15:19:33;;;;;;;23.38;12.13;;;;;;;;;;5062957;27;20429;-74
2021/12/05 15:22:02;;;;;;;19.38;11.60;;;;;;;;;;5029088;28;20463;-74
2021/12/05 15:24:29;;;;;;;19.30;11.63;;;;;;;;;;5028878;28;20424;-74
2021/12/05 15:26:57;;;;;;;19.83;11.90;;;;;;;;;;5024378;28;20417;-74
2021/12/05 15:29:23;;;;;;;19.45;11.20;;;;;;;;;;5050112;27;20920;-74
2021/12/05 15:31:50;;;;;;;20.33;12.43;;;;;;;;;;5054224;27;20421;-74
2021/12/05 15:34:20;;;;;;;20.50;12.90;;;;;;;;;;5029306;28;20474;-73
2021/12/05 15:36:46;;;;;;;19.53;12.00;;;;;;;;;;5057777;27;20818;-74
2021/12/05 15:39:19;;;;;;;22.10;13.15;;;;;;;;;;5029148;28;20425;-73
2021/12/05 15:41:54;;;;;;;21.77;13.00;;;;;;;;;;5028219;28;20557;-74
2021/12/05 15:44:25;;;;;;;21.40;12.25;;;;;;;;;;5028173;28;20450;-74
2021/12/05 15:46:51;;;;;;;28.27;18.02;;;;;;;;;;5028211;28;20453;-74
2021/12/05 15:49:17;;;;;;;30.98;20.35;;;;;;;;;;5028420;28;20420;-74
2021/12/05 15:51:43;;;;;;;22.27;12.82;;;;;;;;;;5033349;27;20415;-73
2021/12/05 15:54:09;;;;;;;20.43;11.57;;;;;;;;;;5040369;28;20482;-73
2021/12/05 15:56:35;;;;;;;20.83;11.70;;;;;;;;;;5028913;28;20421;-73
2021/12/05 15:59:08;;;;;;;19.85;11.20;;;;;;;;;;5028577;28;20496;-73
2021/12/05 16:01:35;;;;;;;21.58;12.80;;;;;;;;;;5054709;27;20421;-72
2021/12/05 16:04:04;;;;;;;19.42;10.98;;;;;;;;;;5028716;28;20429;-73
2021/12/05 16:06:38;;;;;;;25.00;15.38;;;;;;;;;;5046312;28;20987;-72
2021/12/05 16:09:14;;;;;;;20.30;13.25;;;;;;;;;;5025737;28;20425;-73
2021/12/05 16:11:41;;;;;;;23.13;12.77;;;;;;;;;;5029144;28;20435;-72
2021/12/05 16:14:07;;;;;;;19.35;13.48;;;;;;;;;;5027893;28;20436;-73
2021/12/05 16:16:34;;;;;;;22.85;14.13;;;;;;;;;;5029216;28;20508;-73
2021/12/05 16:19:01;;;;;;;24.25;13.20;;;;;;;;;;5028594;28;20432;-73
2021/12/05 16:21:29;;;;;;;24.02;14.45;;;;;;;;;;5047706;28;20417;-73
2021/12/05 16:23:57;;;;;;;25.15;14.40;;;;;;;;;;5032413;28;20413;-72
2021/12/05 16:26:25;;;;;;;22.15;14.98;;;;;;;;;;5031444;28;20421;-72
2021/12/05 16:28:53;;;;;;;25.30;15.75;;;;;;;;;;5031912;28;20496;-73
2021/12/05 16:31:22;;;;;;;30.13;16.73;;;;;;;;;;5031870;28;20417;-72
2021/12/05 16:33:51;;;;;;;31.88;18.13;;;;;;;;;;5031185;28;20969;-72
2021/12/05 16:36:19;;;;;;;32.78;17.15;;;;;;;;;;5031655;28;20478;-72
2021/12/05 16:38:50;;;;;;;31.90;19.05;;;;;;;;;;5048558;27;20413;-72
2021/12/05 16:41:27;;;;;;;29.13;16.60;;;;;;;;;;5029575;28;20414;-72
2021/12/05 16:43:57;;;;;;;38.67;18.58;;;;;;;;;;5031225;28;20473;-72
2021/12/05 16:46:43;;;;;;;31.05;18.10;;;;;;;;;;5015105;28;20425;-72
2021/12/05 16:49:36;;;;;;;29.25;18.05;;;;;;;;;;5031856;28;20872;-73
2021/12/05 16:52:04;;;;;;;31.48;18.95;;;;;;;;;;5056527;27;20777;-72
2021/12/05 16:54:33;;;;;;;34.17;19.38;;;;;;;;;;5031428;28;20417;-72
2021/12/05 16:57:11;;;;;;;34.92;19.25;;;;;;;;;;5031145;28;20437;-72
2021/12/05 16:59:37;;;;;;;39.53;21.92;;;;;;;;;;5031667;28;20422;-72
2021/12/05 17:02:24;;;;;;;38.70;22.08;;;;;;;;;;5031001;28;20434;-72
2021/12/05 17:05:04;;;;;;;35.47;20.15;;;;;;;;;;5030731;28;20430;-72
2021/12/05 17:07:55;;;;;;;38.80;18.80;;;;;;;;;;5031395;28;20428;-72
2021/12/05 17:10:21;;;;;;;74.50;23.27;;;;;;;;;;5024981;28;20417;-72
2021/12/05 17:12:51;;;;;;;33.65;19.42;;;;;;;;;;5029705;28;20433;-72
2021/12/05 17:15:27;;;;;;;30.77;18.40;;;;;;;;;;5030341;28;20489;-72
2021/12/05 17:18:01;;;;;;;34.60;20.27;;;;;;;;;;5030813;27;20421;-72
2021/12/05 17:20:29;;;;;;;36.58;20.98;;;;;;;;;;5030922;28;20418;-72
2021/12/05 17:22:58;;;;;;;34.08;19.05;;;;;;;;;;5030416;27;20421;-72
2021/12/05 17:25:29;;;;;;;32.88;19.45;;;;;;;;;;5014008;27;20426;-72
2021/12/05 17:27:55;;;;;;;31.27;19.30;;;;;;;;;;5029969;28;20913;-72
2021/12/05 17:30:22;;;;;;;36.45;20.30;;;;;;;;;;5030738;28;20458;-72
2021/12/05 17:32:48;;;;;;;32.83;19.70;;;;;;;;;;5013093;28;20477;-72
2021/12/05 17:35:14;;;;;;;33.90;20.15;;;;;;;;;;5013772;28;20425;-72
2021/12/05 17:37:43;;;;;;;34.27;20.83;;;;;;;;;;5030319;28;20418;-72
2021/12/05 17:40:10;;;;;;;37.20;20.63;;;;;;;;;;5025414;28;20423;-72
2021/12/05 17:42:36;;;;;;;38.97;23.35;;;;;;;;;;5039648;27;20428;-73
2021/12/05 17:45:07;;;;;;;39.83;21.98;;;;;;;;;;5030472;27;20425;-74
2021/12/05 17:47:33;;;;;;;34.17;20.90;;;;;;;;;;5045983;28;20959;-74
2021/12/05 17:50:01;;;;;;;39.88;22.90;;;;;;;;;;5029915;28;20417;-72
2021/12/05 17:52:28;;;;;;;37.92;23.13;;;;;;;;;;5046828;27;20421;-72
2021/12/05 17:55:04;;;;;;;42.47;23.58;;;;;;;;;;5030297;28;20405;-72
2021/12/05 17:57:39;;;;;;;37.17;22.30;;;;;;;;;;5012638;28;20864;-72
2021/12/05 18:00:22;;;;;;;37.03;21.90;;;;;;;;;;5030620;28;20815;-72
2021/12/05 18:02:53;;;;;;;35.67;22.15;;;;;;;;;;5029778;28;20444;-72
2021/12/05 18:05:19;;;;;;;37.53;22.27;;;;;;;;;;5030840;28;20421;-72
2021/12/05 18:07:47;;;;;;;34.97;21.50;;;;;;;;;;5029544;28;20769;-72
2021/12/05 18:10:15;;;;;;;42.72;26.17;;;;;;;;;;5030374;28;20877;-72
2021/12/05 18:12:43;;;;;;;38.00;23.48;;;;;;;;;;5030918;27;20426;-72
2021/12/05 18:15:14;;;;;;;34.45;22.83;;;;;;;;;;5012496;27;20429;-72
2021/12/05 18:17:40;;;;;;;36.22;21.70;;;;;;;;;;5028526;27;20486;-72
2021/12/05 18:20:07;;;;;;;38.83;23.73;;;;;;;;;;5054116;27;20457;-72
2021/12/05 18:22:35;;;;;;;37.17;22.08;;;;;;;;;;5044190;27;20430;-72
2021/12/05 18:25:01;;;;;;;32.22;20.35;;;;;;;;;;5027846;27;20422;-72
2021/12/05 18:27:27;;;;;;;41.03;24.55;;;;;;;;;;5056329;27;20482;-72
2021/12/05 18:29:53;;;;;;;36.47;21.58;;;;;;;;;;5031028;27;20454;-72
2021/12/05 18:32:19;;;;;;;32.53;21.27;;;;;;;;;;5028547;27;20471;-72
2021/12/05 18:34:46;;;;;;;35.45;21.38;;;;;;;;;;5028238;27;20413;-73
2021/12/05 18:37:12;;;;;;;33.92;21.80;;;;;;;;;;5045298;27;20808;-72
2021/12/05 18:39:42;;;;;;;32.78;20.58;;;;;;;;;;5019631;27;20425;-72
2021/12/05 18:42:09;;;;;;;33.65;22.33;;;;;;;;;;5032427;27;20429;-72
2021/12/05 18:44:40;;;;;;;31.73;18.98;;;;;;;;;;5049541;27;20508;-72
2021/12/05 18:47:07;;;;;;;33.33;20.47;;;;;;;;;;5055342;27;20447;-72
2021/12/05 18:49:33;;;;;;;31.60;20.80;;;;;;;;;;5030770;28;20457;-71
2021/12/05 18:52:00;;;;;;;29.92;19.67;;;;;;;;;;5029797;28;20512;-72
2021/12/05 18:54:27;;;;;;;28.40;18.48;;;;;;;;;;5029982;28;20920;-72
2021/12/05 18:56:53;;;;;;;27.75;19.02;;;;;;;;;;5021503;28;20442;-72
2021/12/05 18:59:22;;;;;;;30.15;19.30;;;;;;;;;;5029066;28;20425;-71
2021/12/05 19:04:40;;;;;;;29.43;18.40;;;;;;;;;;5027469;28;20425;-72
2021/12/05 19:07:12;;;;;;;30.85;19.60;;;;;;;;;;5030995;27;20417;-73
2021/12/05 19:12:09;;;;;;;32.78;22.05;;;;;;;;;;5028997;28;20944;-72
2021/12/05 19:14:42;;;;;;;35.30;24.02;;;;;;;;;;5028641;28;20422;-72
2021/12/05 19:17:13;;;;;;;36.85;25.30;;;;;;;;;;5028811;28;20417;-72
2021/12/05 19:19:41;;;;;;;35.47;22.67;;;;;;;;;;5028620;28;21149;-72
2021/12/05 19:22:09;;;;;;;43.78;25.33;;;;;;;;;;5027598;28;20433;-72
2021/12/05 19:24:35;;;;;;;31.40;20.33;;;;;;;;;;5029617;28;20428;-72
2021/12/05 19:27:02;;;;;;;31.07;19.43;;;;;;;;;;5028290;28;20432;-72
2021/12/05 19:29:29;;;;;;;35.42;21.60;;;;;;;;;;5028033;28;20433;-72
2021/12/05 19:31:56;;;;;;;36.63;22.98;;;;;;;;;;5011607;28;20417;-72
2021/12/05 19:34:22;;;;;;;35.90;22.65;;;;;;;;;;5028743;28;20501;-72
2021/12/05 19:36:48;;;;;;;34.20;21.60;;;;;;;;;;5028675;28;20422;-72
2021/12/05 19:39:15;;;;;;;36.92;23.55;;;;;;;;;;5012180;28;20432;-72
2021/12/05 19:41:42;;;;;;;41.63;26.90;;;;;;;;;;5045629;28;20425;-72
2021/12/05 19:44:08;;;;;;;49.50;25.15;;;;;;;;;;5048175;28;20429;-71
2021/12/05 19:46:35;;;;;;;36.20;24.37;;;;;;;;;;5026554;28;20434;-71
2021/12/05 19:49:02;;;;;;;30.40;20.90;;;;;;;;;;5027243;28;20460;-72
2021/12/05 19:51:29;;;;;;;34.97;22.40;;;;;;;;;;5028028;27;20575;-72
2021/12/05 19:53:56;;;;;;;35.30;21.27;;;;;;;;;;5044550;28;20456;-71
2021/12/05 19:56:23;;;;;;;34.05;21.95;;;;;;;;;;5094858;28;20432;-72
2021/12/05 19:58:49;;;;;;;36.40;22.92;;;;;;;;;;5032446;28;20421;-71
2021/12/05 20:01:16;;;;;;;33.67;21.33;;;;;;;;;;5030045;28;20426;-71